Time;durP1;ratioP1;P1;durP2;ratioP2;P2;SDS_P1;SDS_P2;PMS_P1;PMS_P2;Temp;Humidity;BMP_temperature;BMP_pressure;BME280_temperature;BME280_humidity;BME280_pressure;Samples;Min_cycle;Max_cycle;Signal;HPM_P1;HPM_P2
2022/06/18 00:00:00;;;;;;;;;;;;;;;-146.27;100.00;64033.13;5091857;28;19916;-38
2022/06/18 00:02:25;;;;;;;;;;;;;;;-146.27;100.00;64033.13;5089819;28;19982;-37
2022/06/18 00:04:51;;;;;;;;;;;;;;;-146.27;100.00;64033.13;5091844;28;19920;-38
2022/06/18 00:07:18;;;;;;;;;;;;;;;-146.27;100.00;64033.13;5091817;28;20220;-37
2022/06/18 00:09:45;;;;;;;;;;;;;;;-146.27;100.00;64033.13;5091403;28;20402;-38
2022/06/18 00:14:57;;;;;;;;;;;;;;;-146.27;100.00;64033.13;5090922;28;19962;-38
2022/06/18 00:17:22;;;;;;;;;;;;;;;-146.27;100.00;64033.13;5091551;28;19919;-38
2022/06/18 00:19:49;;;;;;;;;;;;;;;-146.27;100.00;64033.13;5091374;28;19912;-38
2022/06/18 00:22:15;;;;;;;;;;;;;;;-146.27;100.00;64033.13;5111302;28;19923;-38
2022/06/18 00:24:41;;;;;;;;;;;;;;;-146.27;100.00;64033.13;5111158;28;20003;-38
2022/06/18 00:27:09;;;;;;;;;;;;;;;-146.27;100.00;64033.13;5090945;28;19913;-38
2022/06/18 00:29:34;;;;;;;;;;;;;;;-146.27;100.00;64033.13;5090532;28;19912;-38
2022/06/18 00:32:00;;;;;;;;;;;;;;;-146.27;100.00;64033.13;5090778;28;19912;-38
2022/06/18 00:34:25;;;;;;;;;;;;;;;-146.27;100.00;64033.13;5090122;28;19981;-38
2022/06/18 00:36:50;;;;;;;;;;;;;;;-146.27;100.00;64033.13;5090410;28;20296;-38
2022/06/18 00:39:17;;;;;;;;;;;;;;;-146.27;100.00;64033.13;5090414;28;19960;-38
2022/06/18 00:41:43;;;;;;;;;;;;;;;-146.27;100.00;64033.13;5090218;28;20368;-38
2022/06/18 00:44:32;;;;;;;;;;;;;;;-146.27;100.00;64033.13;5090491;28;20020;-37
2022/06/18 00:47:16;;;;;;;;;;;;;;;-146.27;100.00;64033.13;5087238;28;19940;-37
2022/06/18 00:50:10;;;;;;;;;;;;;;;-146.27;100.00;64033.13;5090664;28;19961;-38
2022/06/18 00:52:57;;;;;;;;;;;;;;;-146.27;100.00;64033.13;5069970;28;20482;-37
2022/06/18 00:55:29;;;;;;;;;;;;;;;-146.27;100.00;64033.13;5090449;28;19950;-38
2022/06/18 00:58:07;;;;;;;;;;;;;;;-146.27;100.00;64033.13;5090298;28;20547;-38
2022/06/18 01:00:32;;;;;;;;;;;;;;;-146.27;100.00;64033.13;5090865;28;19931;-37
2022/06/18 01:02:57;;;;;;;;;;;;;;;-146.27;100.00;64033.13;5090212;28;19916;-38
2022/06/18 01:05:33;;;;;;;;;;;;;;;-146.27;100.00;64033.13;5090202;28;19970;-38
2022/06/18 01:08:19;;;;;;;;;;;;;;;-146.27;100.00;64033.13;5089874;28;19944;-38
2022/06/18 01:10:48;;;;;;;;;;;;;;;-146.27;100.00;64033.13;5090035;28;20023;-38
2022/06/18 01:13:15;;;;;;;;;;;;;;;-146.27;100.00;64033.13;5091263;28;19912;-38
2022/06/18 01:15:42;;;;;;;;;;;;;;;-146.27;100.00;64033.13;5094188;28;20398;-39
2022/06/18 01:18:07;;;;;;;;;;;;;;;-146.27;100.00;64033.13;5094108;28;19965;-39
2022/06/18 01:20:38;;;;;;;;;;;;;;;-146.27;100.00;64033.13;5099565;28;20002;-39
2022/06/18 01:23:06;;;;;;;;;;;;;;;-146.27;100.00;64033.13;5114029;28;19916;-39
2022/06/18 01:25:32;;;;;;;;;;;;;;;-146.27;100.00;64033.13;5107826;28;20014;-39
2022/06/18 01:27:57;;;;;;;;;;;;;;;-146.27;100.00;64033.13;5093364;28;20005;-38
2022/06/18 01:30:25;;;;;;;;;;;;;;;-146.27;100.00;64033.13;5093949;28;19912;-39
2022/06/18 01:32:52;;;;;;;;;;;;;;;-146.27;100.00;64033.13;5093721;28;19916;-38
2022/06/18 01:35:19;;;;;;;;;;;;;;;-146.27;100.00;64033.13;5093642;28;19963;-38
2022/06/18 01:37:45;;;;;;;;;;;;;;;-146.27;100.00;64033.13;5093695;28;19934;-38
2022/06/18 01:40:12;;;;;;;;;;;;;;;-146.27;100.00;64033.13;5093326;28;19912;-38
2022/06/18 01:42:43;;;;;;;;;;;;;;;-146.27;100.00;64033.13;5093266;28;19916;-38
2022/06/18 01:45:16;;;;;;;;;;;;;;;-146.27;100.00;64033.13;5093404;28;19961;-37
2022/06/18 01:47:47;;;;;;;;;;;;;;;-146.27;100.00;64033.13;5093468;28;20064;-38
2022/06/18 01:50:19;;;;;;;;;;;;;;;-146.27;100.00;64033.13;5091473;28;19938;-38
2022/06/18 01:52:59;;;;;;;;;;;;;;;-146.27;100.00;64033.13;5093266;28;19915;-38
2022/06/18 01:55:27;;;;;;;;;;;;;;;-146.27;100.00;64033.13;5093263;28;19947;-38
2022/06/18 01:57:54;;;;;;;;;;;;;;;-146.27;100.00;64033.13;5093122;28;19995;-38
2022/06/18 02:00:22;;;;;;;;;;;;;;;-146.27;100.00;64033.13;5092932;28;19912;-39
2022/06/18 02:02:47;;;;;;;;;;;;;;;-146.27;100.00;64033.13;5092570;28;20008;-39
2022/06/18 02:05:14;;;;;;;;;;;;;;;-146.27;100.00;64033.13;5092884;28;19956;-38
2022/06/18 02:07:40;;;;;;;;;;;;;;;-146.27;100.00;64033.13;5092664;28;19912;-38
2022/06/18 02:10:08;;;;;;;;;;;;;;;-146.27;100.00;64033.13;5092526;28;19916;-38
2022/06/18 02:12:36;;;;;;;;;;;;;;;-146.27;100.00;64033.13;5092312;28;19916;-39
2022/06/18 02:15:07;;;;;;;;;;;;;;;-146.27;100.00;64033.13;5092637;28;19912;-39
2022/06/18 02:17:33;;;;;;;;;;;;;;;-146.27;100.00;64033.13;5092318;28;19954;-38
2022/06/18 02:19:58;;;;;;;;;;;;;;;-146.27;100.00;64033.13;5092623;28;19962;-38
2022/06/18 02:22:29;;;;;;;;;;;;;;;-146.27;100.00;64033.13;5112297;28;19927;-39
2022/06/18 02:24:55;;;;;;;;;;;;;;;-146.27;100.00;64033.13;5111025;28;19992;-39
2022/06/18 02:27:20;;;;;;;;;;;;;;;-146.27;100.00;64033.13;5092430;28;19912;-38
2022/06/18 02:29:46;;;;;;;;;;;;;;;-146.27;100.00;64033.13;5092660;28;19930;-39
2022/06/18 02:32:18;;;;;;;;;;;;;;;-146.27;100.00;64033.13;5092513;28;19916;-39
2022/06/18 02:34:43;;;;;;;;;;;;;;;-146.27;100.00;64033.13;5092250;28;19924;-39
2022/06/18 02:37:14;;;;;;;;;;;;;;;-146.27;100.00;64033.13;5092390;28;19919;-39
2022/06/18 02:39:50;;;;;;;;;;;;;;;-146.27;100.00;64033.13;5092525;28;19935;-39
2022/06/18 02:42:16;;;;;;;;;;;;;;;-146.27;100.00;64033.13;5092113;28;19919;-39
2022/06/18 02:44:44;;;;;;;;;;;;;;;-146.27;100.00;64033.13;5092265;28;20232;-39
2022/06/18 02:47:11;;;;;;;;;;;;;;;-146.27;100.00;64033.13;5092263;28;19912;-39
2022/06/18 02:49:39;;;;;;;;;;;;;;;-146.27;100.00;64033.13;5092261;28;20437;-39
2022/06/18 02:52:04;;;;;;;;;;;;;;;-146.27;100.00;64033.13;5091958;28;19912;-38
2022/06/18 02:54:30;;;;;;;;;;;;;;;-146.27;100.00;64033.13;5091826;28;20010;-37
2022/06/18 02:56:57;;;;;;;;;;;;;;;-146.27;100.00;64033.13;5091721;28;19916;-38
2022/06/18 02:59:23;;;;;;;;;;;;;;;-146.27;100.00;64033.13;5092273;28;19912;-38
2022/06/18 03:01:48;;;;;;;;;;;;;;;-146.27;100.00;64033.13;5091777;28;19939;-37
2022/06/18 03:04:13;;;;;;;;;;;;;;;-146.27;100.00;64033.13;5091653;28;19919;-37
2022/06/18 03:06:39;;;;;;;;;;;;;;;-146.27;100.00;64033.13;5091137;28;19922;-36
2022/06/18 03:09:04;;;;;;;;;;;;;;;-146.27;100.00;64033.13;5091932;28;19912;-36
2022/06/18 03:14:15;;;;;;;;;;;;;;;-146.27;100.00;64033.13;5091886;28;19934;-38
2022/06/18 03:16:41;;;;;;;;;;;;;;;-146.27;100.00;64033.13;5091230;28;20387;-38
2022/06/18 03:19:06;;;;;;;;;;;;;;;-146.27;100.00;64033.13;5090952;28;19940;-37
2022/06/18 03:21:44;;;;;;;;;;;;;;;-146.27;100.00;64033.13;5105602;28;19916;-37
2022/06/18 03:24:10;;;;;;;;;;;;;;;-146.27;100.00;64033.13;5111927;28;19912;-46
2022/06/18 03:26:36;;;;;;;;;;;;;;;-146.27;100.00;64033.13;5111589;28;19938;-37
2022/06/18 03:29:01;;;;;;;;;;;;;;;-146.27;100.00;64033.13;5111627;28;20002;-38
2022/06/18 03:31:27;;;;;;;;;;;;;;;-146.27;100.00;64033.13;5111482;28;19912;-38
2022/06/18 03:33:52;;;;;;;;;;;;;;;-146.27;100.00;64033.13;5111915;28;19926;-38
2022/06/18 03:36:19;;;;;;;;;;;;;;;-146.27;100.00;64033.13;5111651;28;19916;-37
2022/06/18 03:38:44;;;;;;;;;;;;;;;-146.27;100.00;64033.13;5111493;28;19916;-38
2022/06/18 03:41:10;;;;;;;;;;;;;;;-146.27;100.00;64033.13;5111558;28;20295;-38
2022/06/18 03:43:36;;;;;;;;;;;;;;;-146.27;100.00;64033.13;5111610;28;19911;-37
2022/06/18 03:46:08;;;;;;;;;;;;;;;-146.27;100.00;64033.13;5111716;28;19911;-38
2022/06/18 03:48:52;;;;;;;;;;;;;;;-146.27;100.00;64033.13;5111638;28;19912;-38
2022/06/18 03:51:18;;;;;;;;;;;;;;;-146.27;100.00;64033.13;5111631;28;20314;-37
2022/06/18 03:53:43;;;;;;;;;;;;;;;-146.27;100.00;64033.13;5111349;28;19912;-38
2022/06/18 03:56:10;;;;;;;;;;;;;;;-146.27;100.00;64033.13;5112046;28;19991;-37
2022/06/18 03:58:35;;;;;;;;;;;;;;;-146.27;100.00;64033.13;5111317;28;19919;-37
2022/06/18 04:01:01;;;;;;;;;;;;;;;-146.27;100.00;64033.13;5109879;28;19990;-38
2022/06/18 04:03:26;;;;;;;;;;;;;;;-146.27;100.00;64033.13;5111488;28;19955;-37
2022/06/18 04:05:52;;;;;;;;;;;;;;;-146.27;100.00;64033.13;5111363;28;19912;-38
2022/06/18 04:08:19;;;;;;;;;;;;;;;-146.27;100.00;64033.13;5111160;28;20409;-39
2022/06/18 04:10:44;;;;;;;;;;;;;;;-146.27;100.00;64033.13;5111353;28;20010;-38
2022/06/18 04:13:10;;;;;;;;;;;;;;;-146.27;100.00;64033.13;5111053;28;19968;-38
2022/06/18 04:15:35;;;;;;;;;;;;;;;-146.27;100.00;64033.13;5111343;28;19916;-38
2022/06/18 04:18:01;;;;;;;;;;;;;;;-146.27;100.00;64033.13;5111330;28;19912;-38
2022/06/18 04:20:28;;;;;;;;;;;;;;;-146.27;100.00;64033.13;5102429;28;19911;-38
2022/06/18 04:22:54;;;;;;;;;;;;;;;-146.27;100.00;64033.13;5110873;28;19946;-37
2022/06/18 04:25:19;;;;;;;;;;;;;;;-146.27;100.00;64033.13;5111600;28;20468;-37
2022/06/18 04:27:45;;;;;;;;;;;;;;;-146.27;100.00;64033.13;5111555;28;20299;-38
2022/06/18 04:30:11;;;;;;;;;;;;;;;-146.27;100.00;64033.13;5111691;28;19911;-37
2022/06/18 04:32:37;;;;;;;;;;;;;;;-146.27;100.00;64033.13;5111927;28;20290;-37
2022/06/18 04:35:06;;;;;;;;;;;;;;;-146.27;100.00;64033.13;5111557;28;19931;-38
2022/06/18 04:37:32;;;;;;;;;;;;;;;-146.27;100.00;64033.13;5111847;28;19915;-38
2022/06/18 04:39:57;;;;;;;;;;;;;;;-146.27;100.00;64033.13;5111879;28;20135;-38
2022/06/18 04:42:23;;;;;;;;;;;;;;;-146.27;100.00;64033.13;5111724;28;20323;-38
2022/06/18 04:44:49;;;;;;;;;;;;;;;-146.27;100.00;64033.13;5111742;28;19928;-37
2022/06/18 04:47:14;;;;;;;;;;;;;;;-146.27;100.00;64033.13;5111677;28;20279;-37
2022/06/18 04:49:39;;;;;;;;;;;;;;;-146.27;100.00;64033.13;5114473;28;19912;-38
2022/06/18 04:52:05;;;;;;;;;;;;;;;-146.27;100.00;64033.13;5115066;28;19998;-38
2022/06/18 04:54:30;;;;;;;;;;;;;;;-146.27;100.00;64033.13;5115412;28;19911;-38
2022/06/18 04:56:55;;;;;;;;;;;;;;;-146.27;100.00;64033.13;5115192;28;19916;-38
2022/06/18 04:59:21;;;;;;;;;;;;;;;-146.27;100.00;64033.13;5115019;28;20045;-35
2022/06/18 05:01:57;;;;;;;;;;;;;;;-146.27;100.00;64033.13;5114340;28;20361;-37
2022/06/18 05:04:22;;;;;;;;;;;;;;;-146.27;100.00;64033.13;5115043;28;19915;-37
2022/06/18 05:06:47;;;;;;;;;;;;;;;-146.27;100.00;64033.13;5102653;28;20268;-43
2022/06/18 05:09:12;;;;;;;;;;;;;;;-146.27;100.00;64033.13;5094680;28;19947;-37
2022/06/18 05:11:38;;;;;;;;;;;;;;;-146.27;100.00;64033.13;5094228;28;19912;-37
2022/06/18 05:14:03;;;;;;;;;;;;;;;-146.27;100.00;64033.13;5095100;28;20400;-37
2022/06/18 05:16:28;;;;;;;;;;;;;;;-146.27;100.00;64033.13;5094839;28;19923;-38
2022/06/18 05:18:54;;;;;;;;;;;;;;;-146.27;100.00;64033.13;5094591;28;19923;-37
2022/06/18 05:21:19;;;;;;;;;;;;;;;-146.27;100.00;64033.13;5094158;28;20003;-37
2022/06/18 05:23:44;;;;;;;;;;;;;;;-146.27;100.00;64033.13;5094388;28;19912;-37
2022/06/18 05:26:13;;;;;;;;;;;;;;;-146.27;100.00;64033.13;5094533;28;20003;-39
2022/06/18 05:28:38;;;;;;;;;;;;;;;-146.27;100.00;64033.13;5094503;28;19916;-38
2022/06/18 05:31:04;;;;;;;;;;;;;;;-146.27;100.00;64033.13;5094294;28;20004;-37
2022/06/18 05:33:29;;;;;;;;;;;;;;;-146.27;100.00;64033.13;5093870;28;20598;-38
2022/06/18 05:35:54;;;;;;;;;;;;;;;-146.27;100.00;64033.13;5094213;28;20464;-38
2022/06/18 05:38:21;;;;;;;;;;;;;;;-146.27;100.00;64033.13;5082504;28;19928;-39
2022/06/18 05:40:46;;;;;;;;;;;;;;;-146.27;100.00;64033.13;5092957;28;20035;-38
2022/06/18 05:43:12;;;;;;;;;;;;;;;-146.27;100.00;64033.13;5093729;28;19916;-38
2022/06/18 05:45:38;;;;;;;;;;;;;;;-146.27;100.00;64033.13;5093757;28;19962;-38
2022/06/18 05:48:03;;;;;;;;;;;;;;;-146.27;100.00;64033.13;5093939;28;19912;-38
2022/06/18 05:50:29;;;;;;;;;;;;;;;-146.27;100.00;64033.13;5094085;28;20351;-36
2022/06/18 05:52:54;;;;;;;;;;;;;;;-146.27;100.00;64033.13;5094029;28;20283;-37
2022/06/18 05:55:21;;;;;;;;;;;;;;;-146.27;100.00;64033.13;5093408;28;19922;-38
2022/06/18 05:57:51;;;;;;;;;;;;;;;-146.27;100.00;64033.13;5093292;28;19923;-37
2022/06/18 06:00:17;;;;;;;;;;;;;;;-146.27;100.00;64033.13;5091842;28;20267;-37
2022/06/18 06:02:43;;;;;;;;;;;;;;;-146.27;100.00;64033.13;5093458;28;19916;-38
2022/06/18 06:05:08;;;;;;;;;;;;;;;-146.27;100.00;64033.13;5093540;28;19919;-36
2022/06/18 06:07:34;;;;;;;;;;;;;;;-146.27;100.00;64033.13;5093559;28;19988;-37
2022/06/18 06:12:43;;;;;;;;;;;;;;;-146.27;100.00;64033.13;5088543;28;19954;-38
2022/06/18 06:15:09;;;;;;;;;;;;;;;-146.27;100.00;64033.13;5093581;28;19916;-38
2022/06/18 06:17:34;;;;;;;;;;;;;;;-146.27;100.00;64033.13;5093082;28;19934;-38
2022/06/18 06:20:05;;;;;;;;;;;;;;;-146.27;100.00;64033.13;5094139;28;19924;-38
2022/06/18 06:22:30;;;;;;;;;;;;;;;-146.27;100.00;64033.13;5113374;28;20027;-38
2022/06/18 06:24:55;;;;;;;;;;;;;;;-146.27;100.00;64033.13;5111053;28;19939;-38
2022/06/18 06:27:20;;;;;;;;;;;;;;;-146.27;100.00;64033.13;5110701;28;19919;-38
2022/06/18 06:29:46;;;;;;;;;;;;;;;-146.27;100.00;64033.13;5111718;28;20302;-38
2022/06/18 06:32:11;;;;;;;;;;;;;;;-146.27;100.00;64033.13;5111310;28;19923;-38
2022/06/18 06:34:36;;;;;;;;;;;;;;;-146.27;100.00;64033.13;5110740;28;19978;-38
2022/06/18 06:37:04;;;;;;;;;;;;;;;-146.27;100.00;64033.13;5088658;28;19923;-52
2022/06/18 06:39:29;;;;;;;;;;;;;;;-146.27;100.00;64033.13;5113052;28;19907;-52
2022/06/18 06:41:54;;;;;;;;;;;;;;;-146.27;100.00;64033.13;5112791;28;20311;-52
2022/06/18 06:44:19;;;;;;;;;;;;;;;-146.27;100.00;64033.13;5112702;28;19912;-52
2022/06/18 06:46:45;;;;;;;;;;;;;;;-146.27;100.00;64033.13;5112222;28;20432;-51
2022/06/18 06:49:10;;;;;;;;;;;;;;;-146.27;100.00;64033.13;5112454;28;19918;-53
2022/06/18 06:51:37;;;;;;;;;;;;;;;-146.27;100.00;64033.13;5112694;28;20383;-52
2022/06/18 06:54:02;;;;;;;;;;;;;;;-146.27;100.00;64033.13;5112536;28;19941;-51
2022/06/18 06:59:11;;;;;;;;;;;;;;;-146.27;100.00;64033.13;5110778;28;20011;-52
2022/06/18 07:01:37;;;;;;;;;;;;;;;-146.27;100.00;64033.13;5110551;28;20002;-51
2022/06/18 07:04:03;;;;;;;;;;;;;;;-146.27;100.00;64033.13;5110949;28;19912;-51
2022/06/18 07:06:29;;;;;;;;;;;;;;;-146.27;100.00;64033.13;5111058;28;20364;-49
2022/06/18 07:08:54;;;;;;;;;;;;;;;-146.27;100.00;64033.13;5111110;27;20018;-52
2022/06/18 07:11:20;;;;;;;;;;;;;;;-146.27;100.00;64033.13;5111273;28;20332;-52
2022/06/18 07:13:45;;;;;;;;;;;;;;;-146.27;100.00;64033.13;5100004;28;19946;-51
2022/06/18 07:16:12;;;;;;;;;;;;;;;-146.27;100.00;64033.13;5091714;28;19925;-51
2022/06/18 07:18:37;;;;;;;;;;;;;;;-146.27;100.00;64033.13;5091319;28;19954;-50
2022/06/18 07:21:04;;;;;;;;;;;;;;;-146.27;100.00;64033.13;5101496;28;19955;-52
2022/06/18 07:23:30;;;;;;;;;;;;;;;-146.27;100.00;64033.13;5111764;28;19919;-53
2022/06/18 07:25:55;;;;;;;;;;;;;;;-146.27;100.00;64033.13;5107036;28;20311;-51
2022/06/18 07:28:20;;;;;;;;;;;;;;;-146.27;100.00;64033.13;5090775;28;20221;-53
2022/06/18 07:30:46;;;;;;;;;;;;;;;-146.27;100.00;64033.13;5090388;28;19989;-50
2022/06/18 07:33:16;;;;;;;;;;;;;;;-146.27;100.00;64033.13;5102414;28;20050;-49
2022/06/18 07:35:42;;;;;;;;;;;;;;;-146.27;100.00;64033.13;5097193;28;20021;-51
2022/06/18 07:38:07;;;;;;;;;;;;;;;-146.27;100.00;64033.13;5111998;28;20014;-50
2022/06/18 07:40:40;;;;;;;;;;;;;;;-146.27;100.00;64033.13;5111613;28;19915;-52
2022/06/18 07:43:08;;;;;;;;;;;;;;;-146.27;100.00;64033.13;5111243;28;19965;-50
2022/06/18 07:45:33;;;;;;;;;;;;;;;-146.27;100.00;64033.13;5111873;28;19912;-50
2022/06/18 07:47:58;;;;;;;;;;;;;;;-146.27;100.00;64033.13;5111923;28;20394;-51
2022/06/18 07:50:24;;;;;;;;;;;;;;;-146.27;100.00;64033.13;5111335;28;20268;-51
2022/06/18 07:52:49;;;;;;;;;;;;;;;-146.27;100.00;64033.13;5109995;28;19911;-51
2022/06/18 07:55:17;;;;;;;;;;;;;;;-146.27;100.00;64033.13;5110325;28;20298;-52
2022/06/18 07:57:46;;;;;;;;;;;;;;;-146.27;100.00;64033.13;5096534;28;19916;-52
2022/06/18 08:00:13;;;;;;;;;;;;;;;-146.27;100.00;64033.13;5089493;28;19970;-51
2022/06/18 08:02:39;;;;;;;;;;;;;;;-146.27;100.00;64033.13;5088813;28;20417;-51
2022/06/18 08:05:05;;;;;;;;;;;;;;;-146.27;100.00;64033.13;5090657;28;19933;-52
2022/06/18 08:07:30;;;;;;;;;;;;;;;-146.27;100.00;64033.13;5091306;28;19919;-51
2022/06/18 08:09:55;;;;;;;;;;;;;;;-146.27;100.00;64033.13;5090804;28;19937;-52
2022/06/18 08:12:22;;;;;;;;;;;;;;;-146.27;100.00;64033.13;5090841;28;19912;-50
2022/06/18 08:14:48;;;;;;;;;;;;;;;-146.27;100.00;64033.13;5090812;28;19912;-51
2022/06/18 08:17:13;;;;;;;;;;;;;;;-146.27;100.00;64033.13;5090799;28;20007;-50
2022/06/18 08:19:38;;;;;;;;;;;;;;;-146.27;100.00;64033.13;5091074;28;20359;-52
2022/06/18 08:22:04;;;;;;;;;;;;;;;-146.27;100.00;64033.13;5090500;28;19938;-53
2022/06/18 08:24:30;;;;;;;;;;;;;;;-146.27;100.00;64033.13;5093297;28;20056;-52
2022/06/18 08:26:55;;;;;;;;;;;;;;;-146.27;100.00;64033.13;5094801;28;19965;-53
2022/06/18 08:29:23;;;;;;;;;;;;;;;-146.27;100.00;64033.13;5094832;28;20017;-52
2022/06/18 08:31:49;;;;;;;;;;;;;;;-146.27;100.00;64033.13;5094640;28;19912;-52
2022/06/18 08:34:14;;;;;;;;;;;;;;;-146.27;100.00;64033.13;5094669;28;19924;-52
2022/06/18 08:36:40;;;;;;;;;;;;;;;-146.27;100.00;64033.13;5094889;28;19912;-50
2022/06/18 08:39:05;;;;;;;;;;;;;;;-146.27;100.00;64033.13;5094940;28;19995;-52
2022/06/18 08:41:43;;;;;;;;;;;;;;;-146.27;100.00;64033.13;5096111;28;19915;-52
2022/06/18 08:44:08;;;;;;;;;;;;;;;-146.27;100.00;64033.13;5108663;28;20003;-49
2022/06/18 08:46:34;;;;;;;;;;;;;;;-146.27;100.00;64033.13;5097440;28;20022;-49
2022/06/18 08:49:09;;;;;;;;;;;;;;;-146.27;100.00;64033.13;5110773;28;19912;-51
2022/06/18 08:51:55;;;;;;;;;;;;;;;-146.27;100.00;64033.13;5102969;28;19912;-51
2022/06/18 08:54:39;;;;;;;;;;;;;;;-146.27;100.00;64033.13;5091609;28;19912;-52
2022/06/18 08:57:16;;;;;;;;;;;;;;;-146.27;100.00;64033.13;5073826;28;19920;-52
2022/06/18 08:59:49;;;;;;;;;;;;;;;-146.27;100.00;64033.13;5074087;28;19991;-52
2022/06/18 09:02:22;;;;;;;;;;;;;;;-146.27;100.00;64033.13;5073874;28;20357;-52
2022/06/18 09:04:47;;;;;;;;;;;;;;;-146.27;100.00;64033.13;5074575;28;19912;-52
2022/06/18 09:07:31;;;;;;;;;;;;;;;-146.27;100.00;64033.13;5074136;28;20280;-49
2022/06/18 09:09:59;;;;;;;;;;;;;;;-146.27;100.00;64033.13;5074010;28;20000;-52
2022/06/18 09:12:28;;;;;;;;;;;;;;;-146.27;100.00;64033.13;5072048;28;19912;-50
2022/06/18 09:15:14;;;;;;;;;;;;;;;-146.27;100.00;64033.13;5072256;28;20022;-51
2022/06/18 09:17:50;;;;;;;;;;;;;;;-146.27;100.00;64033.13;5073833;28;20602;-51
2022/06/18 09:20:15;;;;;;;;;;;;;;;-146.27;100.00;64033.13;5080756;28;19912;-51
2022/06/18 09:22:47;;;;;;;;;;;;;;;-146.27;100.00;64033.13;5113906;28;19923;-52
2022/06/18 09:25:14;;;;;;;;;;;;;;;-146.27;100.00;64033.13;5094139;28;20002;-53
2022/06/18 09:27:46;;;;;;;;;;;;;;;-146.27;100.00;64033.13;5091964;28;19935;-50
2022/06/18 09:30:37;;;;;;;;;;;;;;;-146.27;100.00;64033.13;5091938;28;19916;-49
2022/06/18 09:33:07;;;;;;;;;;;;;;;-146.27;100.00;64033.13;5077018;28;19926;-50
2022/06/18 09:35:52;;;;;;;;;;;;;;;-146.27;100.00;64033.13;5091754;28;19924;-50
2022/06/18 09:38:18;;;;;;;;;;;;;;;-146.27;100.00;64033.13;5093583;28;19912;-50
2022/06/18 09:40:47;;;;;;;;;;;;;;;-146.27;100.00;64033.13;5093400;28;19940;-50
2022/06/18 09:43:13;;;;;;;;;;;;;;;-146.27;100.00;64033.13;5092226;28;19916;-50
2022/06/18 09:45:45;;;;;;;;;;;;;;;-146.27;100.00;64033.13;5093437;28;19926;-50
2022/06/18 09:48:11;;;;;;;;;;;;;;;-146.27;100.00;64033.13;5093454;28;20439;-51
2022/06/18 09:50:36;;;;;;;;;;;;;;;-146.27;100.00;64033.13;5093147;28;20385;-51
2022/06/18 09:53:07;;;;;;;;;;;;;;;-146.27;100.00;64033.13;5093033;28;19927;-51
2022/06/18 09:55:45;;;;;;;;;;;;;;;-146.27;100.00;64033.13;5093011;28;19912;-50
2022/06/18 09:58:15;;;;;;;;;;;;;;;-146.27;100.00;64033.13;5093179;28;19912;-49
2022/06/18 10:00:41;;;;;;;;;;;;;;;-146.27;100.00;64033.13;5092714;28;19916;-48
2022/06/18 10:03:12;;;;;;;;;;;;;;;-146.27;100.00;64033.13;5092844;28;19928;-52
2022/06/18 10:08:26;;;;;;;;;;;;;;;-146.27;100.00;64033.13;5092891;28;19919;-50
2022/06/18 10:10:53;;;;;;;;;;;;;;;-146.27;100.00;64033.13;5093207;28;20003;-49
2022/06/18 10:13:23;;;;;;;;;;;;;;;-146.27;100.00;64033.13;5093055;28;19916;-48
2022/06/18 10:15:48;;;;;;;;;;;;;;;-146.27;100.00;64033.13;5092611;28;20019;-52
2022/06/18 10:18:14;;;;;;;;;;;;;;;-146.27;100.00;64033.13;5092864;28;19970;-50
2022/06/18 10:20:39;;;;;;;;;;;;;;;-146.27;100.00;64033.13;5099770;28;20003;-51
2022/06/18 10:23:19;;;;;;;;;;;;;;;-146.27;100.00;64033.13;5111109;28;19923;-51
2022/06/18 10:25:50;;;;;;;;;;;;;;;-146.27;100.00;64033.13;5092750;28;19947;-52
2022/06/18 10:28:21;;;;;;;;;;;;;;;-146.27;100.00;64033.13;5092586;28;19912;-52
2022/06/18 10:31:01;;;;;;;;;;;;;;;-146.27;100.00;64033.13;5092902;28;19999;-51
2022/06/18 10:33:26;;;;;;;;;;;;;;;-146.27;100.00;64033.13;5092297;28;19927;-49
2022/06/18 10:36:00;;;;;;;;;;;;;;;-146.27;100.00;64033.13;5092704;28;19916;-51
2022/06/18 10:38:28;;;;;;;;;;;;;;;-146.27;100.00;64033.13;5092732;28;20139;-51
2022/06/18 10:40:54;;;;;;;;;;;;;;;-146.27;100.00;64033.13;5092395;28;19912;-51
2022/06/18 10:43:28;;;;;;;;;;;;;;;-146.27;100.00;64033.13;5091960;28;19917;-50
2022/06/18 10:46:00;;;;;;;;;;;;;;;-146.27;100.00;64033.13;5091757;28;19912;-49
2022/06/18 10:48:28;;;;;;;;;;;;;;;-146.27;100.00;64033.13;5092225;28;20432;-50
2022/06/18 10:50:55;;;;;;;;;;;;;;;-146.27;100.00;64033.13;5092480;28;19916;-51
2022/06/18 10:53:24;;;;;;;;;;;;;;;-146.27;100.00;64033.13;5091710;28;19915;-52
2022/06/18 10:55:57;;;;;;;;;;;;;;;-146.27;100.00;64033.13;5091821;28;19919;-51
2022/06/18 10:58:22;;;;;;;;;;;;;;;-146.27;100.00;64033.13;5092392;28;19991;-50
2022/06/18 11:00:57;;;;;;;;;;;;;;;-146.27;100.00;64033.13;5091728;28;20454;-50
2022/06/18 11:03:25;;;;;;;;;;;;;;;-146.27;100.00;64033.13;5091935;28;20349;-52
2022/06/18 11:05:50;;;;;;;;;;;;;;;-146.27;100.00;64033.13;5091661;28;19953;-49
2022/06/18 11:08:18;;;;;;;;;;;;;;;-146.27;100.00;64033.13;5092015;28;20337;-48
2022/06/18 11:10:50;;;;;;;;;;;;;;;-146.27;100.00;64033.13;5091757;28;19912;-50
2022/06/18 11:13:20;;;;;;;;;;;;;;;-146.27;100.00;64033.13;5091494;28;20303;-50
2022/06/18 11:15:45;;;;;;;;;;;;;;;-146.27;100.00;64033.13;5091453;28;19912;-50
2022/06/18 11:18:15;;;;;;;;;;;;;;;-146.27;100.00;64033.13;5091827;28;19935;-47
2022/06/18 11:20:52;;;;;;;;;;;;;;;-146.27;100.00;64033.13;5098708;28;19918;-48
2022/06/18 11:23:17;;;;;;;;;;;;;;;-146.27;100.00;64033.13;5112153;28;19920;-46
2022/06/18 11:25:49;;;;;;;;;;;;;;;-146.27;100.00;64033.13;5108741;28;20284;-46
2022/06/18 11:28:36;;;;;;;;;;;;;;;-146.27;100.00;64033.13;5091423;28;20007;-49
2022/06/18 11:31:03;;;;;;;;;;;;;;;-146.27;100.00;64033.13;5091542;28;20390;-46
2022/06/18 11:33:33;;;;;;;;;;;;;;;-146.27;100.00;64033.13;5091787;28;19920;-43
2022/06/18 11:36:06;;;;;;;;;;;;;;;-146.27;100.00;64033.13;5091234;28;19916;-46
2022/06/18 11:38:32;;;;;;;;;;;;;;;-146.27;100.00;64033.13;5091934;28;19946;-46
2022/06/18 11:41:21;;;;;;;;;;;;;;;-146.27;100.00;64033.13;5091633;28;20424;-43
2022/06/18 11:43:49;;;;;;;;;;;;;;;-146.27;100.00;64033.13;5085831;28;19947;-46
2022/06/18 11:46:18;;;;;;;;;;;;;;;-146.27;100.00;64033.13;5091524;28;19966;-46
2022/06/18 11:48:51;;;;;;;;;;;;;;;-146.27;100.00;64033.13;5091620;28;19912;-46
2022/06/18 11:51:23;;;;;;;;;;;;;;;-146.27;100.00;64033.13;5091643;28;19997;-47
2022/06/18 11:53:51;;;;;;;;;;;;;;;-146.27;100.00;64033.13;5091411;28;20003;-47
2022/06/18 11:56:26;;;;;;;;;;;;;;;-146.27;100.00;64033.13;5091212;28;19916;-45
2022/06/18 11:58:56;;;;;;;;;;;;;;;-146.27;100.00;64033.13;5091777;28;20390;-46
2022/06/18 12:01:40;;;;;;;;;;;;;;;-146.27;100.00;64033.13;5090784;28;19912;-49
2022/06/18 12:04:24;;;;;;;;;;;;;;;-146.27;100.00;64033.13;5090966;28;19919;-48
2022/06/18 12:06:57;;;;;;;;;;;;;;;-146.27;100.00;64033.13;5091201;28;20011;-47
2022/06/18 12:09:24;;;;;;;;;;;;;;;-146.27;100.00;64033.13;5090529;28;19912;-47
2022/06/18 12:11:49;;;;;;;;;;;;;;;-146.27;100.00;64033.13;5090464;28;19912;-50
2022/06/18 12:14:17;;;;;;;;;;;;;;;-146.27;100.00;64033.13;5091261;28;19965;-49
2022/06/18 12:16:56;;;;;;;;;;;;;;;-146.27;100.00;64033.13;5091040;28;19934;-50
2022/06/18 12:19:21;;;;;;;;;;;;;;;-146.27;100.00;64033.13;5090504;28;20435;-51
2022/06/18 12:21:49;;;;;;;;;;;;;;;-146.27;100.00;64033.13;5107296;28;20023;-48
2022/06/18 12:24:21;;;;;;;;;;;;;;;-146.27;100.00;64033.13;5100018;28;19912;-49
2022/06/18 12:26:52;;;;;;;;;;;;;;;-146.27;100.00;64033.13;5090933;28;20280;-49
2022/06/18 12:29:20;;;;;;;;;;;;;;;-146.27;100.00;64033.13;5090791;28;19954;-52
2022/06/18 12:31:46;;;;;;;;;;;;;;;-146.27;100.00;64033.13;5090875;28;19912;-51
2022/06/18 12:34:30;;;;;;;;;;;;;;;-146.27;100.00;64033.13;5090800;28;19924;-49
2022/06/18 12:37:14;;;;;;;;;;;;;;;-146.27;100.00;64033.13;5090884;28;20424;-50